Time;durP1;ratioP1;P1;durP2;ratioP2;P2;SDS_P1;SDS_P2;PMS_P1;PMS_P2;Temp;Humidity;BMP_temperature;BMP_pressure;BME280_temperature;BME280_humidity;BME280_pressure;Samples;Min_cycle;Max_cycle;Signal;HPM_P1;HPM_P2
2022/06/05 00:00:32;;;;;;;20.10;11.73;;;11.60;99.90;;;;;;5071578;28;20036;-69
2022/06/05 00:03:17;;;;;;;20.33;11.95;;;11.70;99.90;;;;;;5071738;28;20093;-69
2022/06/05 00:06:01;;;;;;;18.17;10.95;;;11.60;99.90;;;;;;5071722;28;20093;-69
2022/06/05 00:08:47;;;;;;;16.75;10.40;;;11.60;99.90;;;;;;5104480;28;20032;-69
2022/06/05 00:11:13;;;;;;;16.30;10.85;;;11.70;99.90;;;;;;5071324;28;20049;-69
2022/06/05 00:13:52;;;;;;;17.10;10.30;;;11.70;99.90;;;;;;5071847;28;20041;-69
2022/06/05 00:16:22;;;;;;;17.25;10.90;;;11.60;99.90;;;;;;5071683;28;20082;-69
2022/06/05 00:18:48;;;;;;;14.15;9.40;;;11.60;99.90;;;;;;5071518;28;20044;-69
2022/06/05 00:21:14;;;;;;;13.18;9.82;;;11.60;99.90;;;;;;5071454;28;20073;-69
2022/06/05 00:23:40;;;;;;;20.35;11.00;;;11.60;99.90;;;;;;5071649;28;20047;-69
2022/06/05 00:26:31;;;;;;;14.27;9.75;;;11.60;99.90;;;;;;5071645;28;20044;-69
2022/06/05 00:29:29;;;;;;;17.27;8.45;;;11.60;99.90;;;;;;5071511;28;20045;-69
2022/06/05 00:32:18;;;;;;;16.30;9.77;;;11.60;99.90;;;;;;5071129;28;20502;-69
2022/06/05 00:34:44;;;;;;;18.13;10.90;;;11.60;99.90;;;;;;5071515;28;20037;-69
2022/06/05 00:37:12;;;;;;;18.88;10.63;;;11.60;99.90;;;;;;5071439;28;20395;-69
2022/06/05 00:39:59;;;;;;;18.10;11.18;;;11.60;99.90;;;;;;5071572;28;20402;-69
2022/06/05 00:42:28;;;;;;;16.70;11.30;;;11.60;99.90;;;;;;5071526;28;20040;-69
2022/06/05 00:44:57;;;;;;;19.17;11.00;;;11.60;99.90;;;;;;5071435;28;20037;-69
2022/06/05 00:47:27;;;;;;;18.63;11.82;;;11.60;99.90;;;;;;5071260;28;20090;-69
2022/06/05 00:50:09;;;;;;;22.98;12.32;;;11.60;99.90;;;;;;5071075;28;20518;-69
2022/06/05 00:52:37;;;;;;;17.83;11.80;;;11.60;99.90;;;;;;5071509;28;20045;-69
2022/06/05 00:55:05;;;;;;;24.42;13.30;;;11.60;99.90;;;;;;5071373;28;20037;-69
2022/06/05 00:57:33;;;;;;;22.88;11.95;;;11.60;99.90;;;;;;5103769;28;20041;-69
2022/06/05 01:00:01;;;;;;;20.02;11.75;;;11.60;99.90;;;;;;5070991;28;20077;-69
2022/06/05 01:02:28;;;;;;;21.13;11.98;;;11.60;99.90;;;;;;5071178;28;20057;-69
2022/06/05 01:04:54;;;;;;;19.67;11.90;;;11.60;99.90;;;;;;5071387;28;20037;-69
2022/06/05 01:07:21;;;;;;;19.67;11.60;;;11.60;99.90;;;;;;5071014;28;20036;-69
2022/06/05 01:09:48;;;;;;;22.88;13.00;;;11.50;99.90;;;;;;5071218;28;20040;-69
2022/06/05 01:12:31;;;;;;;19.98;12.52;;;11.60;99.90;;;;;;5070858;28;20045;-69
2022/06/05 01:15:13;;;;;;;23.63;12.52;;;11.50;99.90;;;;;;5073096;28;20048;-69
2022/06/05 01:17:53;;;;;;;22.75;12.00;;;11.50;99.90;;;;;;5074884;28;20036;-69
2022/06/05 01:20:28;;;;;;;26.88;14.93;;;11.60;99.90;;;;;;5074428;28;20043;-69
2022/06/05 01:23:12;;;;;;;29.98;14.90;;;11.50;99.90;;;;;;5074589;28;20040;-69
2022/06/05 01:26:09;;;;;;;28.92;13.80;;;11.60;99.90;;;;;;5074815;28;20098;-69
2022/06/05 01:28:39;;;;;;;32.53;14.93;;;11.50;99.90;;;;;;5074521;28;20130;-69
2022/06/05 01:31:23;;;;;;;21.40;13.05;;;11.50;99.90;;;;;;5074150;28;20082;-69
2022/06/05 01:33:54;;;;;;;;;;;11.50;99.90;;;;;;5074808;28;20044;-69
2022/06/05 01:36:38;;;;;;;25.58;14.38;;;11.50;99.90;;;;;;5074485;28;19920;-69
2022/06/05 01:39:10;;;;;;;19.55;11.95;;;11.50;99.90;;;;;;5074233;28;20509;-69
2022/06/05 01:41:44;;;;;;;20.15;11.77;;;11.50;99.90;;;;;;5074116;28;20422;-69
2022/06/05 01:44:15;;;;;;;17.60;11.93;;;11.60;99.90;;;;;;5074179;28;20430;-69
2022/06/05 01:46:41;;;;;;;18.88;11.45;;;11.60;99.90;;;;;;5074307;28;20036;-69
2022/06/05 01:49:18;;;;;;;18.10;11.55;;;11.60;99.90;;;;;;5074261;28;20043;-69
2022/06/05 01:52:16;;;;;;;23.33;11.90;;;11.60;99.90;;;;;;5073767;28;20124;-69
2022/06/05 01:54:49;;;;;;;19.20;11.32;;;11.60;99.90;;;;;;5073561;28;20041;-69
2022/06/05 01:57:17;;;;;;;18.70;11.48;;;11.60;99.90;;;;;;5073899;28;20166;-69
2022/06/05 01:59:49;;;;;;;19.73;11.70;;;11.60;99.90;;;;;;5073983;28;20048;-69
2022/06/05 02:02:24;;;;;;;21.88;11.63;;;11.60;99.90;;;;;;5073569;28;20514;-69
2022/06/05 02:05:03;;;;;;;20.00;12.25;;;11.60;99.90;;;;;;5073788;28;20048;-69
2022/06/05 02:07:35;;;;;;;26.80;12.35;;;11.60;99.90;;;;;;5073639;28;20068;-69
2022/06/05 02:10:22;;;;;;;19.60;12.30;;;11.70;99.90;;;;;;5073526;28;20052;-69
2022/06/05 02:12:48;;;;;;;20.25;11.50;;;11.70;99.90;;;;;;5073719;28;20387;-69
2022/06/05 02:15:14;;;;;;;17.92;11.57;;;11.70;99.90;;;;;;5073561;28;20113;-69
2022/06/05 02:17:40;;;;;;;21.25;11.75;;;11.70;99.90;;;;;;5073748;28;20032;-69
2022/06/05 02:20:08;;;;;;;26.92;12.77;;;11.70;99.90;;;;;;5073318;28;20044;-69
2022/06/05 02:22:37;;;;;;;17.90;11.88;;;11.70;99.90;;;;;;5072351;28;20048;-69
2022/06/05 02:25:04;;;;;;;24.73;12.88;;;11.70;99.90;;;;;;5073462;28;20064;-69
2022/06/05 02:27:30;;;;;;;19.73;11.88;;;11.70;99.90;;;;;;5073185;28;20567;-69
2022/06/05 02:29:57;;;;;;;25.13;13.57;;;11.70;99.90;;;;;;5072975;28;20057;-69
2022/06/05 02:33:00;;;;;;;19.67;13.48;;;11.70;99.90;;;;;;5073387;28;20047;-69
2022/06/05 02:35:47;;;;;;;25.20;12.37;;;11.80;99.90;;;;;;5073346;28;20094;-69
2022/06/05 02:38:45;;;;;;;21.88;13.50;;;11.70;99.90;;;;;;5073085;28;20045;-69
2022/06/05 02:41:16;;;;;;;24.85;12.25;;;11.70;99.90;;;;;;5059926;28;20056;-69
2022/06/05 02:47:16;;;;;;;21.88;12.65;;;11.70;99.90;;;;;;5073157;28;20047;-69
2022/06/05 02:49:48;;;;;;;24.38;13.80;;;11.70;99.90;;;;;;5073032;28;20068;-69
2022/06/05 02:52:14;;;;;;;28.13;14.50;;;11.70;99.90;;;;;;5072588;28;20448;-69
2022/06/05 02:54:45;;;;;;;21.17;12.85;;;11.70;99.90;;;;;;5072780;28;20037;-69
2022/06/05 02:57:13;;;;;;;29.90;13.55;;;11.70;99.90;;;;;;5072992;28;20036;-69
2022/06/05 02:59:39;;;;;;;21.85;13.52;;;11.70;99.90;;;;;;5072719;28;20045;-69
2022/06/05 03:04:49;;;;;;;28.55;15.02;;;11.80;99.90;;;;;;5072690;28;20040;-69
2022/06/05 03:07:15;;;;;;;33.85;17.05;;;11.70;99.90;;;;;;5071080;28;20040;-69
2022/06/05 03:09:40;;;;;;;29.50;16.73;;;11.80;99.90;;;;;;5072709;28;20426;-69
2022/06/05 03:12:06;;;;;;;26.15;15.57;;;11.80;99.90;;;;;;5071375;28;20513;-69
2022/06/05 03:14:32;;;;;;;28.45;15.70;;;11.70;99.90;;;;;;5072619;28;20033;-69
2022/06/05 03:16:58;;;;;;;35.40;15.82;;;11.80;99.90;;;;;;5072521;28;20098;-69
2022/06/05 03:19:24;;;;;;;33.78;17.08;;;11.70;99.90;;;;;;5072445;28;20052;-69
2022/06/05 03:21:50;;;;;;;32.05;16.30;;;11.70;99.90;;;;;;5071876;28;20064;-69
2022/06/05 03:24:16;;;;;;;27.13;15.52;;;11.70;99.90;;;;;;5072551;28;20406;-69
2022/06/05 03:26:41;;;;;;;29.20;16.35;;;11.70;99.90;;;;;;5072189;28;20058;-69
2022/06/05 03:29:07;;;;;;;25.38;15.95;;;11.70;99.90;;;;;;5072346;28;20048;-69
2022/06/05 03:31:34;;;;;;;31.27;15.18;;;11.80;99.90;;;;;;5071757;28;20124;-69
2022/06/05 03:34:00;;;;;;;29.98;14.75;;;11.80;99.90;;;;;;5072171;28;20098;-69
2022/06/05 03:36:25;;;;;;;24.98;13.90;;;11.80;99.90;;;;;;5071849;28;20036;-69
2022/06/05 03:38:52;;;;;;;24.38;14.02;;;11.80;99.90;;;;;;5072111;28;20036;-69
2022/06/05 03:41:18;;;;;;;30.50;15.57;;;11.90;99.90;;;;;;5071875;28;20123;-69
2022/06/05 03:43:44;;;;;;;24.67;14.05;;;11.90;99.90;;;;;;5072121;28;20040;-69
2022/06/05 03:46:11;;;;;;;26.42;15.23;;;11.90;99.90;;;;;;5072052;28;20044;-69
2022/06/05 03:48:38;;;;;;;29.00;15.50;;;12.00;99.90;;;;;;5071870;28;20448;-69
2022/06/05 03:51:06;;;;;;;32.25;16.48;;;12.00;99.90;;;;;;5104140;28;20079;-69
2022/06/05 03:53:31;;;;;;;29.33;15.70;;;12.00;99.90;;;;;;5072019;28;20081;-69
2022/06/05 03:55:57;;;;;;;30.77;17.33;;;12.10;99.90;;;;;;5072090;28;20509;-69
2022/06/05 03:58:22;;;;;;;34.83;16.83;;;12.10;99.90;;;;;;5071954;28;20056;-69
2022/06/05 04:00:48;;;;;;;31.00;15.50;;;12.10;99.90;;;;;;5071504;28;20513;-69
2022/06/05 04:03:13;;;;;;;32.72;15.75;;;12.20;99.90;;;;;;5071901;28;20038;-69
2022/06/05 04:05:39;;;;;;;29.27;16.00;;;12.20;99.90;;;;;;5071682;28;20615;-69
2022/06/05 04:08:05;;;;;;;27.65;15.02;;;12.30;99.90;;;;;;5071869;28;20044;-69
2022/06/05 04:10:30;;;;;;;23.02;14.50;;;12.30;99.90;;;;;;5071496;28;20490;-69
2022/06/05 04:12:57;;;;;;;25.08;14.07;;;12.30;99.90;;;;;;5071795;28;20064;-69
2022/06/05 04:15:23;;;;;;;26.70;14.90;;;12.40;99.90;;;;;;5071745;28;20094;-69
2022/06/05 04:17:48;;;;;;;19.92;13.80;;;12.40;99.90;;;;;;5071661;28;20044;-69
2022/06/05 04:20:14;;;;;;;24.88;14.30;;;12.40;99.90;;;;;;5071135;28;20048;-69
2022/06/05 04:22:40;;;;;;;26.40;13.68;;;12.60;99.90;;;;;;5071785;28;20050;-69
2022/06/05 04:25:09;;;;;;;21.50;13.32;;;12.60;99.90;;;;;;5071782;28;20064;-69
2022/06/05 04:27:34;;;;;;;22.98;14.23;;;12.60;99.90;;;;;;5071410;28;20524;-69
2022/06/05 04:30:00;;;;;;;22.95;14.38;;;12.70;99.90;;;;;;5071220;28;20045;-69
2022/06/05 04:32:26;;;;;;;22.38;13.98;;;12.80;99.90;;;;;;5071537;28;20080;-69
2022/06/05 04:34:52;;;;;;;21.70;14.27;;;12.90;99.90;;;;;;5071372;28;20115;-69
2022/06/05 04:37:18;;;;;;;22.38;13.45;;;13.00;99.90;;;;;;5071709;28;20036;-69
2022/06/05 04:39:43;;;;;;;22.52;13.70;;;13.00;99.90;;;;;;5071594;28;20044;-69
2022/06/05 04:42:09;;;;;;;23.23;14.85;;;13.20;99.90;;;;;;5071194;28;20409;-69
2022/06/05 04:44:35;;;;;;;22.52;12.15;;;13.50;99.90;;;;;;5071462;28;20041;-69
2022/06/05 04:47:01;;;;;;;20.13;13.50;;;13.60;99.90;;;;;;5071343;28;20040;-69
2022/06/05 04:49:26;;;;;;;20.38;13.10;;;13.80;99.90;;;;;;5072524;28;20047;-69
2022/06/05 04:51:52;;;;;;;17.15;12.45;;;13.80;99.90;;;;;;5075058;28;20037;-69
2022/06/05 04:54:18;;;;;;;20.95;12.98;;;13.80;99.90;;;;;;5075329;28;20037;-69
2022/06/05 04:56:44;;;;;;;21.92;13.20;;;13.80;99.90;;;;;;5075238;28;20398;-70
2022/06/05 04:59:11;;;;;;;19.85;13.35;;;13.80;99.90;;;;;;5075180;28;20040;-70
2022/06/05 05:01:38;;;;;;;20.05;12.77;;;13.90;99.90;;;;;;5073377;28;20045;-69
2022/06/05 05:04:06;;;;;;;20.52;12.55;;;13.90;99.90;;;;;;5074790;28;20052;-69
2022/06/05 05:06:33;;;;;;;18.58;12.57;;;14.00;99.90;;;;;;5074906;28;20040;-70
2022/06/05 05:08:59;;;;;;;18.85;11.70;;;14.00;99.90;;;;;;5073627;28;20041;-70
2022/06/05 05:11:26;;;;;;;18.25;12.40;;;14.10;99.90;;;;;;5074450;28;20626;-70
2022/06/05 05:13:56;;;;;;;20.42;12.63;;;14.10;99.90;;;;;;5074828;28;20044;-70
2022/06/05 05:16:22;;;;;;;21.63;13.30;;;14.20;99.90;;;;;;5074654;28;20498;-69
2022/06/05 05:18:48;;;;;;;20.05;12.15;;;14.30;99.90;;;;;;5074601;28;20037;-69
2022/06/05 05:21:16;;;;;;;20.35;12.68;;;14.50;99.90;;;;;;5073035;28;20112;-69
2022/06/05 05:23:43;;;;;;;18.30;12.27;;;14.70;99.90;;;;;;5074596;28;20490;-69
2022/06/05 05:26:18;;;;;;;22.63;13.10;;;14.80;99.90;;;;;;5074548;28;20490;-69
2022/06/05 05:28:44;;;;;;;20.20;12.80;;;14.90;99.90;;;;;;5074600;28;20131;-70
2022/06/05 05:31:14;;;;;;;15.82;11.93;;;15.00;99.90;;;;;;5074029;28;20056;-70
2022/06/05 05:33:40;;;;;;;18.13;12.57;;;15.10;99.90;;;;;;5074426;28;20040;-70
2022/06/05 05:36:08;;;;;;;17.83;11.20;;;15.20;99.90;;;;;;5074534;28;20414;-70
2022/06/05 05:38:34;;;;;;;15.98;11.88;;;15.40;99.90;;;;;;5070061;28;20482;-70
2022/06/05 05:43:44;;;;;;;16.95;11.32;;;15.40;99.90;;;;;;5064336;28;20128;-70
2022/06/05 05:46:11;;;;;;;17.85;11.52;;;15.60;99.90;;;;;;5053183;28;20083;-70
2022/06/05 05:48:38;;;;;;;16.15;11.85;;;15.60;99.90;;;;;;5052804;28;20055;-69
2022/06/05 05:51:09;;;;;;;15.40;10.75;;;15.60;99.90;;;;;;5053806;28;20166;-70
2022/06/05 05:53:35;;;;;;;15.63;11.25;;;15.60;99.90;;;;;;5054142;28;20045;-70
2022/06/05 05:56:12;;;;;;;17.05;10.75;;;15.60;99.90;;;;;;5053960;28;20040;-70
2022/06/05 05:58:39;;;;;;;17.33;11.73;;;15.50;99.90;;;;;;5053983;28;20639;-70
2022/06/05 06:01:07;;;;;;;15.00;11.75;;;15.50;99.90;;;;;;5051908;28;20045;-70
2022/06/05 06:03:33;;;;;;;14.77;10.68;;;15.50;99.90;;;;;;5053943;28;20388;-69
2022/06/05 06:06:00;;;;;;;16.45;11.45;;;15.50;99.90;;;;;;5053781;28;20055;-70
2022/06/05 06:08:26;;;;;;;17.63;11.15;;;15.50;99.90;;;;;;5053716;28;20106;-70
2022/06/05 06:10:52;;;;;;;16.05;10.95;;;15.50;99.90;;;;;;5053371;28;20550;-70
2022/06/05 06:13:18;;;;;;;16.67;12.30;;;15.60;99.90;;;;;;5053929;28;20037;-70
2022/06/05 06:15:43;;;;;;;14.52;10.93;;;15.70;99.90;;;;;;5053740;28;20037;-70
2022/06/05 06:18:09;;;;;;;18.10;12.00;;;15.70;99.90;;;;;;5053634;28;20503;-70
2022/06/05 06:20:35;;;;;;;17.42;11.75;;;15.80;99.90;;;;;;5053196;28;20117;-70
2022/06/05 06:23:01;;;;;;;18.02;11.50;;;15.90;99.90;;;;;;5053417;28;20502;-69
2022/06/05 06:25:26;;;;;;;13.38;10.07;;;16.00;99.90;;;;;;5053632;28;20033;-70
2022/06/05 06:27:52;;;;;;;14.70;11.30;;;16.00;99.90;;;;;;5053517;28;20384;-70
2022/06/05 06:30:17;;;;;;;18.05;11.75;;;16.00;99.90;;;;;;5053124;28;20120;-70
2022/06/05 06:32:43;;;;;;;14.43;10.88;;;16.10;99.90;;;;;;5053431;28;20486;-70
2022/06/05 06:35:09;;;;;;;15.68;11.77;;;16.10;99.90;;;;;;5053310;28;20037;-70
2022/06/05 06:37:35;;;;;;;16.50;11.77;;;16.20;99.90;;;;;;5053278;28;20045;-70
2022/06/05 06:40:00;;;;;;;15.57;11.52;;;16.20;99.90;;;;;;5052768;28;20041;-70
2022/06/05 06:42:26;;;;;;;18.35;12.00;;;16.20;99.90;;;;;;5053317;28;20045;-70
2022/06/05 06:44:52;;;;;;;13.90;10.50;;;16.30;99.90;;;;;;5053083;28;20399;-70
2022/06/05 06:47:17;;;;;;;15.85;10.45;;;16.40;99.90;;;;;;5051680;28;20037;-70
2022/06/05 06:49:43;;;;;;;15.20;10.63;;;16.70;99.90;;;;;;5052961;28;20106;-70
2022/06/05 06:52:08;;;;;;;12.73;10.27;;;16.80;99.90;;;;;;5052497;28;20045;-70
2022/06/05 06:54:34;;;;;;;16.05;11.00;;;16.90;99.90;;;;;;5054591;28;20037;-69
2022/06/05 06:56:59;;;;;;;13.88;11.20;;;17.00;99.90;;;;;;5069287;28;20040;-69
2022/06/05 06:59:27;;;;;;;16.73;10.40;;;17.00;99.90;;;;;;5072464;28;20101;-70
2022/06/05 07:01:53;;;;;;;15.05;10.75;;;17.10;99.90;;;;;;5072112;28;20044;-69
2022/06/05 07:04:19;;;;;;;16.20;11.77;;;17.20;99.90;;;;;;5072383;28;20029;-69
2022/06/05 07:06:44;;;;;;;16.40;10.77;;;17.20;99.90;;;;;;5072107;28;20520;-70
2022/06/05 07:09:13;;;;;;;13.88;10.10;;;17.20;99.90;;;;;;5072151;28;20595;-68
2022/06/05 07:11:40;;;;;;;15.73;10.45;;;17.20;99.90;;;;;;5067346;28;20036;-68
2022/06/05 07:14:05;;;;;;;11.88;9.55;;;17.30;99.90;;;;;;5069665;28;20033;-69
2022/06/05 07:16:31;;;;;;;14.27;10.43;;;17.50;99.90;;;;;;5070834;28;20047;-69
2022/06/05 07:18:57;;;;;;;15.73;9.98;;;17.60;99.90;;;;;;5070775;28;20087;-69
2022/06/05 07:21:24;;;;;;;13.43;8.70;;;17.70;99.90;;;;;;5071558;28;20048;-68
2022/06/05 07:23:50;;;;;;;14.90;10.23;;;18.00;99.90;;;;;;5072231;28;20111;-68
2022/06/05 07:26:22;;;;;;;13.13;9.63;;;18.00;99.90;;;;;;5072153;28;20040;-69
2022/06/05 07:28:49;;;;;;;12.48;8.57;;;18.10;99.90;;;;;;5071822;28;20041;-69
2022/06/05 07:31:18;;;;;;;12.23;8.88;;;18.20;99.90;;;;;;5071105;28;20035;-69
2022/06/05 07:33:44;;;;;;;12.25;8.32;;;18.30;99.90;;;;;;5053427;28;20108;-69
2022/06/05 07:36:12;;;;;;;10.27;8.50;;;18.50;99.90;;;;;;5070177;28;20542;-69
2022/06/05 07:38:39;;;;;;;9.70;7.93;;;18.60;99.90;;;;;;5071373;28;20052;-69
2022/06/05 07:41:06;;;;;;;9.93;8.02;;;18.90;99.90;;;;;;5071353;28;20066;-69
2022/06/05 07:43:33;;;;;;;9.30;7.82;;;19.00;99.90;;;;;;5071731;28;20037;-69
2022/06/05 07:46:05;;;;;;;11.23;8.43;;;19.10;99.90;;;;;;5071733;28;20489;-69
2022/06/05 07:48:31;;;;;;;9.05;7.68;;;19.20;99.80;;;;;;5071685;28;20039;-69
2022/06/05 07:56:31;;;;;;;9.27;7.32;;;19.70;98.20;;;;;;5071983;28;20412;-70
2022/06/05 07:58:57;;;;;;;9.80;7.88;;;19.80;98.10;;;;;;5070433;28;20040;-69
2022/06/05 08:01:22;;;;;;;12.32;8.02;;;19.80;98.00;;;;;;5071476;28;20040;-69
2022/06/05 08:03:48;;;;;;;11.27;7.40;;;19.90;97.40;;;;;;5065634;28;20040;-69
2022/06/05 08:06:13;;;;;;;8.32;7.18;;;20.00;97.50;;;;;;5103498;28;20132;-69
2022/06/05 08:08:39;;;;;;;12.88;8.63;;;20.20;96.80;;;;;;5071257;28;20486;-69
2022/06/05 08:11:05;;;;;;;8.32;7.32;;;20.40;96.70;;;;;;5066405;28;20094;-69
2022/06/05 08:13:31;;;;;;;9.73;7.40;;;20.50;96.60;;;;;;5071386;28;20028;-68
2022/06/05 08:15:57;;;;;;;8.40;7.32;;;20.50;96.40;;;;;;5070416;28;20033;-69
2022/06/05 08:18:23;;;;;;;8.40;7.47;;;20.60;96.30;;;;;;5071589;28;20079;-68
2022/06/05 08:20:49;;;;;;;8.45;7.43;;;20.50;95.30;;;;;;5069752;28;20041;-69
2022/06/05 08:23:15;;;;;;;10.63;7.32;;;20.50;95.80;;;;;;5072665;28;20378;-69
2022/06/05 08:25:40;;;;;;;11.57;7.53;;;20.60;95.60;;;;;;5075726;28;20119;-69
2022/06/05 08:28:08;;;;;;;9.55;6.78;;;20.80;95.40;;;;;;5075230;28;20036;-69
2022/06/05 08:30:33;;;;;;;10.85;7.57;;;20.80;95.10;;;;;;5075441;28;20040;-69
2022/06/05 08:32:59;;;;;;;10.05;7.15;;;20.80;94.90;;;;;;5075651;28;20040;-69
2022/06/05 08:35:24;;;;;;;9.45;6.65;;;20.80;95.10;;;;;;5075493;28;20257;-69
2022/06/05 08:43:49;;;;;;;8.98;7.72;;;20.90;94.60;;;;;;5075343;28;20066;-68
2022/06/05 08:46:36;;;;;;;7.78;7.00;;;20.90;94.70;;;;;;5075372;28;20048;-68
2022/06/05 08:49:14;;;;;;;9.88;7.07;;;21.00;94.50;;;;;;5074944;28;20516;-68
2022/06/05 08:51:53;;;;;;;10.75;7.60;;;21.20;94.80;;;;;;5075057;28;20119;-69
2022/06/05 08:54:25;;;;;;;8.90;6.20;;;21.30;94.20;;;;;;5075266;28;20409;-68
2022/06/05 08:56:59;;;;;;;8.73;6.63;;;21.30;94.40;;;;;;5074034;28;20046;-68
2022/06/05 08:59:30;;;;;;;8.27;6.70;;;21.40;94.40;;;;;;5057909;28;20044;-69
2022/06/05 09:02:09;;;;;;;10.40;6.88;;;21.30;94.00;;;;;;5074875;28;20055;-69
2022/06/05 09:05:02;;;;;;;9.30;6.65;;;21.30;94.30;;;;;;5075055;28;20068;-69
2022/06/05 09:07:34;;;;;;;8.25;6.45;;;21.30;94.30;;;;;;5074657;28;20040;-69
2022/06/05 09:10:06;;;;;;;7.68;6.38;;;21.30;94.60;;;;;;5074449;28;20044;-68
2022/06/05 09:12:35;;;;;;;10.55;7.15;;;21.30;94.60;;;;;;5074721;28;20068;-69
2022/06/05 09:15:18;;;;;;;8.52;6.70;;;21.30;94.60;;;;;;5074773;28;20040;-69
2022/06/05 09:17:53;;;;;;;7.97;6.72;;;21.30;95.00;;;;;;5074661;28;20036;-69
2022/06/05 09:20:22;;;;;;;9.10;7.07;;;21.30;95.00;;;;;;5071509;28;20107;-69
2022/06/05 09:22:57;;;;;;;7.25;6.47;;;21.30;94.70;;;;;;5070851;28;20041;-69
2022/06/05 09:25:50;;;;;;;6.85;5.90;;;21.30;94.30;;;;;;5073261;28;20041;-69
2022/06/05 09:28:47;;;;;;;7.65;6.45;;;21.60;94.00;;;;;;5071901;28;20028;-69
2022/06/05 09:31:34;;;;;;;10.40;6.65;;;21.80;93.60;;;;;;5073830;28;20058;-68
2022/06/05 09:34:09;;;;;;;6.80;6.10;;;21.80;92.50;;;;;;5104424;28;20086;-69
2022/06/05 09:36:36;;;;;;;8.20;7.40;;;21.90;92.60;;;;;;5071339;28;20094;-68
2022/06/05 09:39:23;;;;;;;7.75;6.53;;;21.80;92.90;;;;;;5073989;28;20040;-70
2022/06/05 09:42:20;;;;;;;8.07;6.93;;;21.80;92.20;;;;;;5072241;28;20036;-68
2022/06/05 09:45:22;;;;;;;6.85;6.20;;;21.80;92.00;;;;;;5071168;28;20637;-69
2022/06/05 09:48:30;;;;;;;7.75;5.50;;;21.90;92.30;;;;;;5071511;28;20093;-68
2022/06/05 09:50:56;;;;;;;6.75;6.03;;;22.10;92.60;;;;;;5073263;28;20037;-68
2022/06/05 09:53:27;;;;;;;8.57;6.53;;;22.20;92.20;;;;;;5073653;28;20036;-68
2022/06/05 09:56:15;;;;;;;9.43;5.88;;;22.20;91.80;;;;;;5071287;28;20082;-69
2022/06/05 09:59:02;;;;;;;6.90;5.93;;;22.20;91.90;;;;;;5106627;28;20036;-70
2022/06/05 10:01:31;;;;;;;6.68;6.00;;;22.40;92.00;;;;;;5072600;28;20056;-70
2022/06/05 10:03:57;;;;;;;7.70;6.95;;;22.40;91.80;;;;;;5072939;28;20048;-70
2022/06/05 10:07:02;;;;;;;9.73;5.97;;;22.30;90.90;;;;;;5081091;28;20066;-69
2022/06/05 10:09:29;;;;;;;8.07;5.80;;;22.30;91.30;;;;;;5073817;28;20404;-69
2022/06/05 10:11:54;;;;;;;7.15;6.43;;;22.40;91.30;;;;;;5073141;28;20129;-69
2022/06/05 10:14:42;;;;;;;9.52;6.18;;;22.40;91.50;;;;;;5073458;28;20523;-69
2022/06/05 10:17:20;;;;;;;7.22;6.53;;;22.40;91.70;;;;;;5073631;28;20044;-69
2022/06/05 10:20:07;;;;;;;7.65;6.47;;;22.60;91.30;;;;;;5073439;28;20037;-69
2022/06/05 10:22:36;;;;;;;7.57;6.65;;;22.70;91.40;;;;;;5073514;28;20486;-68
2022/06/05 10:25:09;;;;;;;9.57;6.90;;;22.80;91.30;;;;;;5055747;28;20063;-68
2022/06/05 10:27:36;;;;;;;8.10;6.80;;;22.90;90.70;;;;;;5073318;28;20036;-68
2022/06/05 10:30:03;;;;;;;7.63;6.63;;;22.90;90.30;;;;;;5073014;28;20128;-69
2022/06/05 10:32:46;;;;;;;9.02;6.45;;;23.00;91.00;;;;;;5071852;28;20506;-68
2022/06/05 10:35:18;;;;;;;;;;;23.00;89.90;;;;;;5073480;28;20565;-68
2022/06/05 10:37:47;;;;;;;12.45;6.72;;;22.90;90.00;;;;;;5073198;28;19916;-68
2022/06/05 10:40:32;;;;;;;7.68;6.88;;;23.00;90.00;;;;;;5072778;28;20044;-68
2022/06/05 10:43:21;;;;;;;9.00;6.35;;;23.10;89.60;;;;;;5073036;28;20036;-69
2022/06/05 10:45:50;;;;;;;8.45;6.97;;;23.00;88.70;;;;;;5072845;28;20044;-70
2022/06/05 10:48:37;;;;;;;7.68;6.68;;;23.00;87.80;;;;;;5071979;28;20379;-69
2022/06/05 10:51:17;;;;;;;8.07;7.20;;;23.10;88.80;;;;;;5071971;28;20044;-68
2022/06/05 10:53:56;;;;;;;10.18;7.18;;;23.00;88.90;;;;;;5073497;28;20078;-68
2022/06/05 10:56:34;;;;;;;9.07;7.53;;;22.90;89.80;;;;;;5073151;28;20113;-69
2022/06/05 10:59:06;;;;;;;10.93;6.78;;;22.90;88.90;;;;;;5072778;28;20032;-69
2022/06/05 11:01:53;;;;;;;9.50;7.05;;;23.10;89.90;;;;;;5072491;28;20067;-68
2022/06/05 11:04:37;;;;;;;6.93;6.00;;;23.10;89.50;;;;;;5072725;28;20044;-70
2022/06/05 11:07:32;;;;;;;8.60;6.40;;;23.30;90.10;;;;;;5072613;28;20118;-68
2022/06/05 11:10:13;;;;;;;8.10;6.38;;;23.40;89.30;;;;;;5072527;28;20045;-67
2022/06/05 11:16:01;;;;;;;8.25;6.47;;;23.50;87.70;;;;;;5072736;28;20504;-68
2022/06/05 11:18:42;;;;;;;6.78;6.00;;;23.50;85.80;;;;;;5072684;28;20078;-68
2022/06/05 11:21:09;;;;;;;8.50;6.22;;;23.50;85.40;;;;;;5072010;28;20097;-68
2022/06/05 11:23:39;;;;;;;6.75;6.00;;;23.40;85.90;;;;;;5072995;28;20449;-70
2022/06/05 11:26:10;;;;;;;6.78;6.00;;;23.40;86.50;;;;;;5072510;28;20048;-68
2022/06/05 11:28:57;;;;;;;6.65;5.30;;;23.40;85.70;;;;;;5072882;28;20120;-69
2022/06/05 11:31:35;;;;;;;7.57;5.85;;;23.40;86.00;;;;;;5072110;28;20040;-69
2022/06/05 11:34:24;;;;;;;9.18;5.40;;;23.40;86.00;;;;;;5072402;28;20398;-69
2022/06/05 11:36:53;;;;;;;10.90;6.03;;;23.40;84.90;;;;;;5072515;28;20130;-70
2022/06/05 11:39:24;;;;;;;6.60;5.72;;;23.40;84.80;;;;;;5072179;28;20035;-69
2022/06/05 11:42:21;;;;;;;7.40;6.68;;;23.50;86.20;;;;;;5071988;28;20043;-69
2022/06/05 11:44:50;;;;;;;7.40;5.85;;;23.50;84.80;;;;;;5072923;28;20032;-69
2022/06/05 11:47:41;;;;;;;6.60;5.45;;;23.60;85.30;;;;;;5072936;28;20032;-69
2022/06/05 11:50:33;;;;;;;6.88;5.90;;;23.60;85.20;;;;;;5071440;28;20062;-68
2022/06/05 11:53:38;;;;;;;7.53;6.03;;;23.70;85.10;;;;;;5072261;28;20512;-68
2022/06/05 11:56:23;;;;;;;9.82;6.05;;;23.70;84.00;;;;;;5072040;28;20078;-68
2022/06/05 11:59:20;;;;;;;7.50;5.28;;;23.70;83.20;;;;;;5071547;28;20120;-69
2022/06/05 12:01:54;;;;;;;7.00;5.57;;;23.80;81.50;;;;;;5071618;28;20045;-69
2022/06/05 12:04:47;;;;;;;8.10;6.20;;;23.80;79.50;;;;;;5071860;28;20032;-69
2022/06/05 12:07:14;;;;;;;7.30;5.97;;;23.90;78.60;;;;;;5071725;28;20041;-69
2022/06/05 12:09:48;;;;;;;6.55;5.95;;;23.90;78.10;;;;;;5071849;28;20151;-69
2022/06/05 12:12:20;;;;;;;6.20;5.60;;;23.90;77.20;;;;;;5071571;28;20413;-69
2022/06/05 12:15:33;;;;;;;6.28;5.65;;;23.90;77.50;;;;;;5071655;28;20089;-69
2022/06/05 12:18:03;;;;;;;9.15;5.60;;;23.90;77.50;;;;;;5071131;28;20502;-69
2022/06/05 12:20:45;;;;;;;12.20;6.47;;;23.90;78.00;;;;;;5071473;28;20044;-69
2022/06/05 12:23:47;;;;;;;6.97;5.97;;;23.80;76.90;;;;;;5071687;28;20048;-69
2022/06/05 12:26:27;;;;;;;7.00;5.65;;;23.80;76.80;;;;;;5071880;28;20044;-69
2022/06/05 12:29:05;;;;;;;6.25;5.57;;;23.80;77.70;;;;;;5071578;28;20410;-69
2022/06/05 12:31:39;;;;;;;8.18;5.55;;;23.90;78.10;;;;;;5071312;28;20040;-69
2022/06/05 12:34:20;;;;;;;11.88;6.20;;;23.80;78.80;;;;;;5071497;28;20036;-69
2022/06/05 12:36:55;;;;;;;6.78;5.80;;;23.80;78.30;;;;;;5071686;28;20098;-69
2022/06/05 12:39:27;;;;;;;6.90;6.25;;;23.80;79.10;;;;;;5071625;28;20116;-70
2022/06/05 12:42:24;;;;;;;7.00;5.65;;;23.70;79.00;;;;;;5071414;28;20033;-69
2022/06/05 12:44:53;;;;;;;7.25;5.38;;;23.70;79.30;;;;;;5071634;28;20051;-69
2022/06/05 12:47:36;;;;;;;9.07;5.65;;;23.70;79.80;;;;;;5071496;28;20041;-69
2022/06/05 12:50:20;;;;;;;6.70;5.38;;;23.70;79.80;;;;;;5071149;28;20083;-69
2022/06/05 12:53:20;;;;;;;6.57;5.88;;;23.70;79.60;;;;;;5071296;28;20045;-70
2022/06/05 12:55:54;;;;;;;6.80;5.80;;;23.70;80.60;;;;;;5071198;28;20052;-69
2022/06/05 12:58:37;;;;;;;7.78;5.80;;;23.70;79.80;;;;;;5071475;28;20047;-69
2022/06/05 13:01:11;;;;;;;7.55;5.40;;;23.70;80.60;;;;;;5070883;28;20044;-69
2022/06/05 13:03:58;;;;;;;6.80;5.25;;;23.60;80.70;;;;;;5071515;28;20055;-69
2022/06/05 13:06:58;;;;;;;7.38;5.45;;;23.70;80.20;;;;;;5071244;28;20040;-69
2022/06/05 13:09:47;;;;;;;7.90;5.53;;;23.70;79.80;;;;;;5071075;28;20394;-69
2022/06/05 13:12:18;;;;;;;7.25;5.95;;;23.70;78.90;;;;;;5074775;28;20612;-69
2022/06/05 13:15:03;;;;;;;6.53;5.68;;;23.70;78.50;;;;;;5075009;28;20044;-70
2022/06/05 13:17:53;;;;;;;5.88;5.13;;;23.70;77.80;;;;;;5074889;28;20111;-69
2022/06/05 13:20:20;;;;;;;8.05;5.63;;;23.70;77.00;;;;;;5074686;28;20039;-69
2022/06/05 13:23:04;;;;;;;6.20;5.60;;;23.70;76.30;;;;;;5074791;28;20430;-69
2022/06/05 13:25:56;;;;;;;6.32;5.00;;;23.70;75.30;;;;;;5073811;28;20068;-69
2022/06/05 13:28:45;;;;;;;5.93;5.27;;;23.80;76.10;;;;;;5072768;28;20039;-69